Woodland Park, Colorado
Current Conditions -  °F | °C
As of 2:58 PM on Friday 31 Oct 2014 (Local Time) from KAFF Reporting Station
Clear Clear  
Wind Chill: 42°   Ceiling: Unl
Heat Index: 48°   Visibility: 10mi
Dew Point: 28°   Wind: 14mph
Humidity: 46%   Direction: 150°SSE
Pressure: 30.23"   Gusts: 21mph
Location:  38.99°N, 105.05°W
Report Text: KAFF 312058Z AUTO 15012G18KT 10SM CLR 09/M02 A3023 RMK AO2 SLP223 T00881024 57028
Loading
Personal Weather Stations






























Interactive Weather Map
Tropical Storm Tracking
New forecast layout! Learn more

10-Day Weather Forecast

Advertisements
Track Severe Weather on mobile